Terminal Aerodrome Forecast
Issued by NWS Upton, NY

Home | Current Version | Previous Version | Text Only | Print | Product List | Glossary On
Versions: 1 2 3 4 5 6 7 8 9 10 11 12 13 14 15 16 17 18 19 20 21 22 23 24 25 26 27 28 29 30 31 32
000
FTUS41 KOKX 220700 AAA
TAFEWR
TAF AMD
KEWR 220712Z 2207/2312 VRB06KT P6SM -RA SCT020 BKN040
     FM220900 12005KT P6SM BKN020
     FM221400 11008KT P6SM SCT025 OVC040
     FM230200 07008KT P6SM BKN020 OVC040=

USA.gov is the U.S. government's official web portal to all federal, state and local government web resources and services.